בריסל, Belgium

02:50 PM CET , ינואר 20, 2017 (GMT +0100)
engelenstraat | | Change Station

Elev 138 ft 50.89 °N, 4.54 °E | Updated 31 seconds ago

בהיר
בהיר
47.1 ° F
Feels Like 47 ° F
צפ
2.8
רוח משתנה רוח from דר-מז
Gusts 6.3 מייל/שעה

היום
High -- | Low -- ° F
--% Chance of Precip.
אתמול
High -- | Low -- ° F
Precip. -- אינץ
לחץ 30.48 אינץ
ראות 6.2 מיילים
עננים Few 24000 ft
רוח צוננת 47 ° F
טמפ עיבוי 15 ° F
לחות 27%
גשם 0.00 אינץ
עומק השלג Not available.
8:33 AM 5:12 PM
רבע אחרון, 44% visible
METAR EBBE 201325Z 05007KT 9999 FEW240 03/M07 Q1032 BLU BLU
לחץ 30.48 אינץ
ראות 6.2 מיילים
עננים Few 24000 ft
רוח צוננת 47 ° F
טמפ עיבוי 15 ° F
לחות 27%
גשם 0.00 אינץ
עומק השלג Not available.
8:33 AM 5:12 PM
רבע אחרון, 44% visible
METAR EBBE 201325Z 05007KT 9999 FEW240 03/M07 Q1032 BLU BLU

Get Your Daily Forecast Email!

Thanks for signing up!

Be on the lookout for a verification email in your inbox.

You'll start receiving the daily forecast at 8 AM.

×

10-Day Weather Forecast

×

Almanac

אסטרונומיה

Jan. 20, 2017 Rise Set
Actual Time
Civil Twilight
Nautical Twilight
Astronomical Twilight
ירח
Length Of Visible Light
אורך היום
Tomorrow will be .
, % of the Moon is Illuminated

Today's Extremes

Country Highs Country Lows

Community

WunderPhotos

Upload Photos

1,962,540 photos uploaded!

WunderBlog® & News

Nearby

איכות האוויר

  איכות האוויר אינדקס איכות האוויר חומר מזהם
Not available.

עומק שלג

Station Depth Elevation

Earthquake Activity

עיר Distance Mag. Time & Date
Minimum magnitude displayed is 2.5.

Coastal Water Temperatures

מקום טמפרטורה

Stations

Nearby Weather Stations

Station Location טמפ רוח צוננת טמפ עיבוי לחות רוח Precip. Elev מעודכן Type